createdAt,value
2019-02-07T00:00:17.995Z,4.50
2019-02-07T00:02:46.265Z,4.56
2019-02-07T00:05:14.671Z,4.53
2019-02-07T00:07:43.713Z,4.48
2019-02-07T00:10:19.989Z,4.52
2019-02-07T00:12:48.310Z,4.48
2019-02-07T00:15:16.821Z,4.47
2019-02-07T00:17:45.103Z,4.43
2019-02-07T00:20:16.636Z,4.55
2019-02-07T00:22:44.933Z,4.50
2019-02-07T00:25:13.277Z,4.44
2019-02-07T00:27:41.538Z,4.44
2019-02-07T00:30:18.670Z,4.44
2019-02-07T00:32:46.940Z,4.40
2019-02-07T00:35:15.241Z,4.41
2019-02-07T00:37:43.537Z,4.38
2019-02-07T00:40:16.792Z,4.40
2019-02-07T00:42:45.393Z,4.35
2019-02-07T00:45:17.693Z,4.40
2019-02-07T00:47:46.017Z,4.35
2019-02-07T00:50:18.399Z,4.32
2019-02-07T00:52:49.200Z,4.32
2019-02-07T00:55:18.034Z,4.31
2019-02-07T00:57:46.314Z,4.31
2019-02-07T01:00:23.212Z,4.35
2019-02-07T01:02:51.496Z,4.29
2019-02-07T01:05:20.909Z,4.22
2019-02-07T01:07:49.484Z,4.26
2019-02-07T01:10:23.898Z,4.24
2019-02-07T01:12:52.162Z,4.18
2019-02-07T01:15:20.631Z,4.17
2019-02-07T01:17:49.037Z,4.14
2019-02-07T01:20:17.485Z,4.13
2019-02-07T01:22:45.838Z,4.09
2019-02-07T01:25:20.170Z,3.96
2019-02-07T01:27:48.452Z,4.03
2019-02-07T01:30:20.006Z,4.00
2019-02-07T01:32:48.286Z,4.00
2019-02-07T01:35:16.575Z,3.98
2019-02-07T01:37:44.846Z,3.99
2019-02-07T01:40:16.124Z,3.97
2019-02-07T01:42:44.418Z,3.93
2019-02-07T01:45:19.270Z,3.95
2019-02-07T01:47:49.212Z,3.92
2019-02-07T01:50:22.076Z,3.89
2019-02-07T01:52:50.632Z,3.91
2019-02-07T01:55:18.918Z,3.87
2019-02-07T01:57:47.192Z,3.84
2019-02-07T02:00:17.262Z,3.85
2019-02-07T02:02:45.613Z,3.86
2019-02-07T02:05:15.513Z,3.80
2019-02-07T02:07:44.196Z,3.80
2019-02-07T02:10:15.601Z,3.81
2019-02-07T02:12:43.876Z,3.77
2019-02-07T02:15:23.716Z,3.79
2019-02-07T02:17:42.925Z,3.80
2019-02-07T02:20:19.080Z,3.76
2019-02-07T02:22:47.374Z,3.77
2019-02-07T02:25:15.650Z,3.74
2019-02-07T02:27:43.947Z,3.71
2019-02-07T02:30:45.446Z,3.75
2019-02-07T02:33:13.718Z,3.70
2019-02-07T02:35:41.983Z,3.68
2019-02-07T02:38:10.273Z,3.68
2019-02-07T02:40:38.547Z,3.66
2019-02-07T02:43:06.822Z,3.66
2019-02-07T02:45:37.639Z,3.67
2019-02-07T02:48:05.080Z,3.62
2019-02-07T02:50:33.332Z,3.58
2019-02-07T02:53:01.607Z,3.58
2019-02-07T02:55:34.511Z,3.59
2019-02-07T02:58:02.922Z,3.59
2019-02-07T03:00:44.801Z,3.57
2019-02-07T03:03:26.737Z,3.60
2019-02-07T03:06:12.535Z,3.60
2019-02-07T03:08:45.795Z,3.57
2019-02-07T03:11:24.981Z,3.57
2019-02-07T03:13:57.714Z,3.59
2019-02-07T03:16:36.849Z,3.57
2019-02-07T03:19:09.485Z,3.55
2019-02-07T03:21:39.462Z,3.52
2019-02-07T03:24:15.289Z,3.53
2019-02-07T03:27:01.467Z,3.56
2019-02-07T03:29:37.617Z,3.54
2019-02-07T03:32:07.938Z,3.52
2019-02-07T03:34:37.991Z,3.49
2019-02-07T03:37:07.891Z,3.47
2019-02-07T03:39:43.677Z,3.48
2019-02-07T03:42:13.577Z,3.48
2019-02-07T03:44:46.635Z,3.44
2019-02-07T03:47:16.573Z,3.41
2019-02-07T03:49:46.485Z,3.38
2019-02-07T03:52:16.794Z,3.39
2019-02-07T03:54:46.685Z,3.34
2019-02-07T03:57:16.623Z,3.39
2019-02-07T03:59:55.507Z,3.38
2019-02-07T04:02:30.958Z,3.37
2019-02-07T04:05:04.038Z,3.36
2019-02-07T04:07:45.643Z,3.39
2019-02-07T04:10:18.543Z,3.39
2019-02-07T04:12:57.497Z,3.40
2019-02-07T04:15:33.171Z,3.37
2019-02-07T04:18:11.900Z,3.36
2019-02-07T04:20:57.661Z,3.28
2019-02-07T04:23:46.828Z,3.29
2019-02-07T04:26:32.928Z,3.33
2019-02-07T04:29:05.461Z,3.29
2019-02-07T04:31:37.939Z,3.28
2019-02-07T04:34:16.819Z,3.31
2019-02-07T04:36:48.363Z,3.27
2019-02-07T04:39:21.297Z,3.27
2019-02-07T04:41:54.188Z,3.24
2019-02-07T04:44:26.552Z,3.20
2019-02-07T04:46:56.466Z,3.22
2019-02-07T04:49:26.427Z,3.21
2019-02-07T04:52:08.420Z,3.21
2019-02-07T04:54:41.357Z,3.23
2019-02-07T04:57:13.976Z,3.21
2019-02-07T04:59:49.860Z,3.20
2019-02-07T05:02:35.237Z,3.17
2019-02-07T05:05:08.087Z,3.17
2019-02-07T05:07:54.280Z,3.17
2019-02-07T05:10:24.285Z,3.15
2019-02-07T05:13:10.659Z,3.14
2019-02-07T05:15:49.632Z,3.14
2019-02-07T05:18:22.901Z,3.12
2019-02-07T05:20:52.818Z,3.10
2019-02-07T05:23:22.736Z,3.12
2019-02-07T05:25:58.452Z,3.06
2019-02-07T05:28:31.010Z,3.08
2019-02-07T05:31:07.323Z,3.08
2019-02-07T05:33:42.800Z,3.06
2019-02-07T05:36:29.159Z,3.11
2019-02-07T05:39:01.757Z,3.07
2019-02-07T05:41:37.588Z,3.05
2019-02-07T05:44:19.600Z,3.04
2019-02-07T05:47:04.146Z,3.03
2019-02-07T05:49:41.953Z,3.03
2019-02-07T05:52:20.031Z,3.00
2019-02-07T05:55:06.392Z,3.04
2019-02-07T05:57:52.443Z,2.98
2019-02-07T06:00:34.205Z,2.98
2019-02-07T06:03:04.122Z,2.98
2019-02-07T06:05:34.031Z,2.93
2019-02-07T06:08:19.925Z,2.91
2019-02-07T06:11:00.163Z,2.89
2019-02-07T06:13:33.327Z,2.90
2019-02-07T06:16:19.161Z,2.96
2019-02-07T06:19:05.409Z,2.87
2019-02-07T06:21:35.714Z,2.85
2019-02-07T06:24:22.043Z,2.78
2019-02-07T06:26:54.945Z,2.81
2019-02-07T06:29:32.352Z,2.82
2019-02-07T06:32:11.201Z,2.79
2019-02-07T06:34:47.403Z,2.78
2019-02-07T06:37:26.290Z,2.77
2019-02-07T06:40:05.631Z,2.75
2019-02-07T06:42:38.193Z,2.77
2019-02-07T06:45:14.204Z,2.80
2019-02-07T06:47:49.996Z,2.82
2019-02-07T06:50:34.860Z,2.72
2019-02-07T06:53:21.245Z,2.71
2019-02-07T06:55:55.945Z,2.70
2019-02-07T06:58:41.871Z,2.84
2019-02-07T07:01:14.745Z,2.71
2019-02-07T07:03:57.766Z,2.65
2019-02-07T07:06:27.814Z,2.63
2019-02-07T07:09:00.731Z,2.66
2019-02-07T07:11:46.726Z,2.69
2019-02-07T07:14:26.131Z,2.57
2019-02-07T07:16:56.059Z,2.66
2019-02-07T07:19:41.099Z,2.63
2019-02-07T07:25:00.502Z,2.60
2019-02-07T07:27:39.493Z,2.62
2019-02-07T07:30:15.433Z,2.59
2019-02-07T07:32:51.242Z,2.59
2019-02-07T07:35:37.050Z,2.63
2019-02-07T07:38:19.202Z,2.67
2019-02-07T07:40:49.180Z,2.63
2019-02-07T07:43:30.403Z,2.68
2019-02-07T07:46:16.064Z,2.71
2019-02-07T07:48:45.994Z,2.69
2019-02-07T07:51:15.894Z,2.67
2019-02-07T07:53:51.771Z,2.78
2019-02-07T07:56:39.047Z,2.74
2019-02-07T07:59:20.664Z,2.81
2019-02-07T08:01:59.453Z,2.78
2019-02-07T08:04:41.642Z,2.77
2019-02-07T08:07:20.086Z,2.77
2019-02-07T08:09:50.022Z,2.80
2019-02-07T08:12:31.913Z,2.81
2019-02-07T08:15:02.388Z,2.85
2019-02-07T08:17:35.080Z,2.92
2019-02-07T08:20:05.549Z,2.95
2019-02-07T08:22:40.965Z,2.98
2019-02-07T08:25:10.911Z,3.04
2019-02-07T08:27:44.123Z,3.05
2019-02-07T08:30:16.806Z,3.01
2019-02-07T08:32:55.544Z,3.03
2019-02-07T08:35:34.278Z,3.13
2019-02-07T08:38:04.407Z,3.15
2019-02-07T08:43:51.435Z,3.26
2019-02-07T08:46:29.989Z,3.25
2019-02-07T08:49:01.080Z,3.39
2019-02-07T08:51:47.332Z,3.36
2019-02-07T08:54:26.491Z,3.36
2019-02-07T08:56:56.399Z,3.57
2019-02-07T08:59:32.131Z,3.57
2019-02-07T09:02:02.047Z,3.57
2019-02-07T09:04:48.090Z,3.53
2019-02-07T09:07:32.780Z,3.57
2019-02-07T09:10:14.775Z,3.52
2019-02-07T09:13:02.778Z,3.70
2019-02-07T09:15:38.655Z,3.63
2019-02-07T09:18:25.180Z,3.66
2019-02-07T09:20:57.763Z,3.65
2019-02-07T09:23:45.933Z,3.66
2019-02-07T09:26:33.701Z,3.63
2019-02-07T09:29:09.350Z,3.63
2019-02-07T09:31:57.591Z,3.74
2019-02-07T09:34:33.058Z,3.62
2019-02-07T09:37:19.499Z,3.80
2019-02-07T09:39:56.077Z,3.79
2019-02-07T09:42:32.031Z,3.79
2019-02-07T09:45:17.094Z,3.87
2019-02-07T09:47:46.382Z,3.94
2019-02-07T09:50:22.659Z,3.95
2019-02-07T09:53:04.588Z,4.05
2019-02-07T09:55:40.085Z,4.04
2019-02-07T09:58:12.740Z,4.02
2019-02-07T10:00:42.681Z,4.01
2019-02-07T10:03:12.597Z,4.13
2019-02-07T10:05:45.089Z,4.07
2019-02-07T10:08:33.628Z,4.13
2019-02-07T10:11:03.596Z,4.17
2019-02-07T10:13:33.499Z,4.13
2019-02-07T10:16:09.487Z,4.19
2019-02-07T10:18:54.749Z,4.12
2019-02-07T10:21:30.869Z,4.06
2019-02-07T10:24:09.765Z,4.13
2019-02-07T10:26:51.935Z,4.12
2019-02-07T10:29:28.065Z,4.10
2019-02-07T10:32:12.968Z,4.14
2019-02-07T10:34:52.128Z,4.23
2019-02-07T10:37:32.239Z,4.24
2019-02-07T10:40:17.212Z,4.29
2019-02-07T10:43:02.266Z,4.30
2019-02-07T10:45:40.608Z,4.34
2019-02-07T10:48:26.752Z,4.48
2019-02-07T10:51:00.182Z,4.43
2019-02-07T10:53:30.369Z,4.39
2019-02-07T10:56:05.750Z,4.36
2019-02-07T10:58:51.744Z,4.37
2019-02-07T11:01:21.684Z,4.29
2019-02-07T11:03:54.579Z,4.34
2019-02-07T11:06:24.506Z,4.42
2019-02-07T11:09:10.739Z,4.47
2019-02-07T11:11:49.842Z,4.47
2019-02-07T11:14:22.413Z,4.48
2019-02-07T11:16:52.360Z,4.51
2019-02-07T11:19:26.389Z,4.49
2019-02-07T11:22:05.544Z,4.55
2019-02-07T11:24:35.466Z,4.61
2019-02-07T11:27:14.304Z,4.77
2019-02-07T11:29:50.490Z,4.65
2019-02-07T11:32:29.654Z,4.76
2019-02-07T11:34:59.561Z,4.76
2019-02-07T11:37:41.746Z,4.71
2019-02-07T11:40:13.865Z,4.78
2019-02-07T11:42:46.998Z,4.69
2019-02-07T11:45:25.856Z,4.79
2019-02-07T11:47:55.824Z,4.74
2019-02-07T11:50:25.842Z,4.82
2019-02-07T11:53:01.956Z,4.81
2019-02-07T11:55:31.863Z,4.85
2019-02-07T11:58:10.526Z,4.88
2019-02-07T12:00:58.542Z,4.92
2019-02-07T12:03:37.044Z,5.02
2019-02-07T12:06:09.992Z,5.10
2019-02-07T12:08:42.659Z,5.18
2019-02-07T12:11:15.551Z,5.20
2019-02-07T12:13:45.482Z,5.32
2019-02-07T12:16:32.228Z,5.52
2019-02-07T12:19:02.151Z,5.59
2019-02-07T12:21:34.926Z,5.63
2019-02-07T12:24:04.875Z,5.75
2019-02-07T12:26:37.506Z,5.89
2019-02-07T12:29:23.581Z,5.90
2019-02-07T12:32:02.513Z,6.01
2019-02-07T12:34:41.451Z,6.09
2019-02-07T12:37:13.968Z,6.14
2019-02-07T12:39:43.918Z,6.17
2019-02-07T12:42:16.381Z,6.13
2019-02-07T12:45:04.689Z,6.25
2019-02-07T12:47:37.212Z,6.55
2019-02-07T12:50:26.551Z,6.61
2019-02-07T12:52:59.404Z,6.63
2019-02-07T12:55:29.361Z,6.67
2019-02-07T12:58:08.271Z,6.73
2019-02-07T13:00:54.673Z,6.66
2019-02-07T13:03:40.637Z,6.65
2019-02-07T13:06:26.969Z,6.81
2019-02-07T13:08:56.886Z,6.87
2019-02-07T13:11:33.244Z,6.86
2019-02-07T13:16:56.758Z,7.05
2019-02-07T13:19:41.229Z,7.13
2019-02-07T13:22:13.821Z,7.09
2019-02-07T13:24:44.141Z,7.03
2019-02-07T13:27:30.003Z,7.14
2019-02-07T13:30:15.009Z,7.23
2019-02-07T13:32:54.794Z,7.46
2019-02-07T13:35:40.977Z,7.43
2019-02-07T13:38:13.571Z,7.37
2019-02-07T13:40:59.684Z,7.37
2019-02-07T13:43:45.793Z,7.39
2019-02-07T13:46:15.718Z,7.40
2019-02-07T13:48:45.649Z,7.42
2019-02-07T13:51:15.633Z,7.50
2019-02-07T13:53:54.810Z,7.56
2019-02-07T13:56:37.045Z,7.63
2019-02-07T13:59:15.668Z,7.80
2019-02-07T14:01:45.573Z,7.76
2019-02-07T14:04:21.278Z,7.81
2019-02-07T14:07:02.737Z,7.78
2019-02-07T14:09:42.259Z,7.65
2019-02-07T14:12:12.198Z,7.65
2019-02-07T14:14:47.561Z,7.62
2019-02-07T14:17:29.749Z,7.57
2019-02-07T14:20:08.663Z,7.57
2019-02-07T14:22:38.636Z,7.51
2019-02-07T14:25:28.489Z,7.46
2019-02-07T14:27:58.432Z,7.39
2019-02-07T14:30:28.360Z,7.37
2019-02-07T14:33:04.257Z,7.32
2019-02-07T14:35:36.891Z,7.34
2019-02-07T14:38:07.186Z,7.50
2019-02-07T14:40:39.687Z,7.46
2019-02-07T14:43:09.608Z,7.39
2019-02-07T14:45:42.314Z,7.31
2019-02-07T14:48:12.255Z,7.24
2019-02-07T14:50:40.519Z,7.22
2019-02-07T14:53:08.779Z,7.24
2019-02-07T14:55:37.090Z,7.18
2019-02-07T14:58:05.371Z,7.21
2019-02-07T15:00:33.636Z,7.13
2019-02-07T15:03:01.901Z,7.04
2019-02-07T15:05:31.476Z,6.98
2019-02-07T15:08:00.216Z,6.94
2019-02-07T15:10:28.564Z,6.92
2019-02-07T15:12:56.890Z,6.93
2019-02-07T15:15:25.174Z,6.91
2019-02-07T15:17:53.446Z,6.90
2019-02-07T15:20:26.194Z,6.86
2019-02-07T15:22:51.749Z,6.75
2019-02-07T15:25:20.163Z,6.76
2019-02-07T15:27:48.470Z,6.77
2019-02-07T15:30:21.528Z,6.72
2019-02-07T15:32:49.771Z,6.71
2019-02-07T15:35:27.098Z,6.78
2019-02-07T15:37:55.643Z,6.79
2019-02-07T15:40:25.760Z,6.75
2019-02-07T15:42:54.122Z,6.70
2019-02-07T15:45:22.918Z,6.77
2019-02-07T15:47:51.177Z,6.74
2019-02-07T15:50:22.007Z,6.67
2019-02-07T15:52:52.135Z,6.61
2019-02-07T15:55:20.631Z,6.55
2019-02-07T15:57:49.920Z,6.50
2019-02-07T16:00:33.785Z,6.52
2019-02-07T16:03:06.166Z,6.47
2019-02-07T16:05:34.612Z,6.33
2019-02-07T16:08:02.949Z,6.37
2019-02-07T16:10:31.207Z,6.34
2019-02-07T16:12:59.519Z,6.34
2019-02-07T16:15:27.795Z,6.32
2019-02-07T16:17:56.083Z,6.25
2019-02-07T16:20:24.761Z,6.23
2019-02-07T16:22:53.111Z,6.23
2019-02-07T16:25:21.492Z,6.16
2019-02-07T16:27:49.818Z,6.19
2019-02-07T16:30:21.677Z,6.14
2019-02-07T16:32:49.963Z,6.08
2019-02-07T16:35:20.274Z,6.13
2019-02-07T16:37:48.845Z,6.14
2019-02-07T16:40:21.875Z,6.20
2019-02-07T16:42:49.451Z,6.13
2019-02-07T16:45:20.976Z,6.25
2019-02-07T16:47:49.240Z,6.17
2019-02-07T16:50:20.615Z,6.23
2019-02-07T16:52:48.930Z,6.18
2019-02-07T16:55:17.339Z,6.15
2019-02-07T16:57:45.709Z,6.09
2019-02-07T17:00:32.327Z,5.99
2019-02-07T17:03:00.575Z,5.98
2019-02-07T17:05:28.854Z,6.00
2019-02-07T17:07:57.143Z,6.08
2019-02-07T17:10:52.373Z,6.01
2019-02-07T17:13:20.820Z,6.11
2019-02-07T17:15:49.101Z,6.01
2019-02-07T17:18:17.390Z,6.14
2019-02-07T17:20:45.699Z,6.05
2019-02-07T17:23:14.004Z,6.06
2019-02-07T17:25:42.278Z,6.03
2019-02-07T17:28:10.809Z,6.00
2019-02-07T17:30:39.111Z,6.00
2019-02-07T17:33:07.380Z,6.00
2019-02-07T17:35:35.715Z,5.59
2019-02-07T17:38:05.781Z,6.04
2019-02-07T17:40:34.068Z,5.77
2019-02-07T17:43:02.329Z,6.09
2019-02-07T17:45:32.013Z,6.08
2019-02-07T17:48:00.272Z,6.12
2019-02-07T17:50:40.272Z,5.98
2019-02-07T17:53:09.885Z,6.02
2019-02-07T17:55:38.154Z,6.09
2019-02-07T17:58:07.166Z,6.06
2019-02-07T18:00:40.335Z,5.94
2019-02-07T18:03:08.597Z,5.96
2019-02-07T18:05:36.905Z,5.90
2019-02-07T18:08:05.470Z,5.94
2019-02-07T18:10:33.772Z,6.00
2019-02-07T18:13:02.030Z,5.97
2019-02-07T18:15:30.297Z,5.94
2019-02-07T18:18:02.777Z,5.96
2019-02-07T18:20:30.230Z,5.97
2019-02-07T18:23:00.208Z,5.90
2019-02-07T18:25:28.493Z,5.93
2019-02-07T18:27:56.832Z,5.94
2019-02-07T18:30:25.356Z,5.89
2019-02-07T18:32:53.662Z,5.92
2019-02-07T18:35:22.047Z,5.87
2019-02-07T18:37:50.335Z,5.79
2019-02-07T18:40:24.057Z,5.76
2019-02-07T18:42:52.359Z,5.75
2019-02-07T18:45:21.555Z,5.72
2019-02-07T18:47:49.952Z,5.75
2019-02-07T18:50:28.074Z,5.67
2019-02-07T18:52:56.745Z,5.59
2019-02-07T18:55:25.408Z,5.57
2019-02-07T18:57:53.762Z,5.54
2019-02-07T19:00:28.108Z,5.62
2019-02-07T19:02:56.376Z,5.62
2019-02-07T19:05:26.356Z,5.73
2019-02-07T19:07:54.732Z,5.80
2019-02-07T19:10:29.613Z,5.78
2019-02-07T19:12:58.570Z,5.90
2019-02-07T19:15:45.897Z,5.78
2019-02-07T19:18:14.370Z,5.76
2019-02-07T19:20:42.873Z,5.71
2019-02-07T19:23:11.173Z,5.80
2019-02-07T19:25:39.867Z,5.78
2019-02-07T19:28:11.254Z,5.79
2019-02-07T19:30:39.565Z,5.80
2019-02-07T19:33:07.948Z,5.80
2019-02-07T19:35:37.881Z,5.85
2019-02-07T19:38:06.250Z,5.92
2019-02-07T19:40:38.089Z,5.88
2019-02-07T19:43:06.402Z,5.80
2019-02-07T19:45:34.691Z,5.74
2019-02-07T19:48:02.986Z,5.67
2019-02-07T19:50:31.292Z,5.63
2019-02-07T19:52:59.591Z,5.63
2019-02-07T19:55:33.226Z,5.64
2019-02-07T19:58:01.527Z,5.65
2019-02-07T20:00:31.764Z,5.62
2019-02-07T20:03:00.224Z,5.66
2019-02-07T20:05:28.663Z,5.66
2019-02-07T20:07:57.098Z,5.69
2019-02-07T20:10:27.207Z,5.68
2019-02-07T20:12:56.584Z,5.74
2019-02-07T20:15:28.190Z,5.69
2019-02-07T20:17:59.764Z,5.74
2019-02-07T20:20:26.617Z,5.77
2019-02-07T20:22:55.050Z,5.78
2019-02-07T20:25:23.571Z,5.81
2019-02-07T20:27:51.887Z,5.80
2019-02-07T20:30:31.611Z,5.77
2019-02-07T20:33:01.149Z,5.78
2019-02-07T20:35:29.411Z,5.81
2019-02-07T20:37:57.741Z,5.77
2019-02-07T20:40:27.744Z,5.80
2019-02-07T20:42:56.191Z,5.88
2019-02-07T20:45:24.821Z,5.32
2019-02-07T20:47:53.206Z,5.93
2019-02-07T20:50:26.784Z,5.96
2019-02-07T20:52:55.092Z,5.94
2019-02-07T20:55:23.706Z,5.92
2019-02-07T20:57:52.360Z,5.94
2019-02-07T21:00:31.927Z,5.90
2019-02-07T21:03:00.228Z,5.90
2019-02-07T21:05:30.032Z,5.96
2019-02-07T21:08:01.146Z,5.89
2019-02-07T21:10:31.469Z,5.93
2019-02-07T21:12:59.809Z,5.99
2019-02-07T21:15:28.407Z,5.95
2019-02-07T21:17:56.754Z,5.95
2019-02-07T21:20:27.625Z,5.88
2019-02-07T21:22:56.747Z,5.95
2019-02-07T21:25:32.229Z,5.92
2019-02-07T21:28:02.347Z,5.93
2019-02-07T21:30:37.549Z,5.93
2019-02-07T21:33:06.259Z,5.89
2019-02-07T21:35:34.572Z,6.02
2019-02-07T21:38:02.925Z,5.90
2019-02-07T21:40:34.090Z,5.85
2019-02-07T21:43:02.355Z,5.80
2019-02-07T21:45:30.993Z,5.75
2019-02-07T21:48:00.002Z,5.76
2019-02-07T21:50:30.309Z,5.82
2019-02-07T21:53:00.234Z,5.76
2019-02-07T21:55:36.025Z,5.79
2019-02-07T21:58:05.648Z,5.82
2019-02-07T22:00:36.235Z,5.80
2019-02-07T22:03:07.427Z,5.78
2019-02-07T22:05:35.700Z,5.78
2019-02-07T22:08:04.544Z,5.78
2019-02-07T22:10:32.814Z,5.77
2019-02-07T22:13:01.077Z,5.79
2019-02-07T22:15:29.907Z,5.79
2019-02-07T22:17:58.186Z,5.75
2019-02-07T22:20:28.185Z,5.72
2019-02-07T22:22:57.089Z,5.67
2019-02-07T22:25:25.354Z,5.66
2019-02-07T22:27:53.636Z,5.59
2019-02-07T22:30:27.650Z,5.58
2019-02-07T22:32:56.010Z,5.61
2019-02-07T22:35:29.972Z,5.60
2019-02-07T22:37:58.281Z,5.52
2019-02-07T22:40:26.636Z,5.57
2019-02-07T22:42:54.922Z,5.48
2019-02-07T22:45:26.622Z,5.44
2019-02-07T22:47:54.875Z,5.46
2019-02-07T22:50:30.589Z,5.42
2019-02-07T22:53:00.519Z,5.37
2019-02-07T22:55:28.838Z,5.35
2019-02-07T22:57:57.135Z,5.37
2019-02-07T23:00:36.505Z,5.32
2019-02-07T23:03:10.085Z,5.28
2019-02-07T23:05:38.369Z,5.23
2019-02-07T23:08:06.631Z,5.16
2019-02-07T23:10:34.936Z,5.06
2019-02-07T23:13:03.601Z,5.02
2019-02-07T23:15:31.845Z,4.92
2019-02-07T23:18:00.099Z,5.00
2019-02-07T23:20:28.383Z,5.01
2019-02-07T23:23:04.567Z,4.92
2019-02-07T23:25:26.681Z,4.83
2019-02-07T23:27:55.439Z,4.76
2019-02-07T23:30:23.712Z,4.80
2019-02-07T23:32:51.997Z,4.81
2019-02-07T23:35:21.963Z,4.82
2019-02-07T23:37:50.213Z,4.80
2019-02-07T23:40:22.722Z,4.82
2019-02-07T23:42:50.965Z,4.78
2019-02-07T23:45:21.105Z,4.81
2019-02-07T23:47:49.434Z,4.87
2019-02-07T23:50:17.764Z,4.95
2019-02-07T23:52:46.023Z,4.96
2019-02-07T23:55:15.148Z,5.01
2019-02-07T23:57:43.439Z,4.99
